createdAt,value
2016-09-24T00:00:20.212Z,1019.95
2016-09-24T00:01:00.755Z,1019.96
2016-09-24T00:01:41.301Z,1019.9
2016-09-24T00:02:21.839Z,1019.9
2016-09-24T00:03:02.380Z,1019.94
2016-09-24T00:03:42.926Z,1019.93
2016-09-24T00:04:23.464Z,1019.88
2016-09-24T00:05:04.005Z,1019.92
2016-09-24T00:05:44.548Z,1019.92
2016-09-24T00:06:25.085Z,1019.95
2016-09-24T00:07:05.634Z,1019.98
2016-09-24T00:07:46.177Z,1019.94
2016-09-24T00:08:26.723Z,1019.96
2016-09-24T00:09:07.265Z,1019.96
2016-09-24T00:09:47.811Z,1019.91
2016-09-24T00:10:28.355Z,1019.94
2016-09-24T00:11:08.900Z,1019.92
2016-09-24T00:11:49.449Z,1019.93
2016-09-24T00:12:29.994Z,1019.93
2016-09-24T00:13:10.542Z,1019.93
2016-09-24T00:13:51.087Z,1019.95
2016-09-24T00:14:31.631Z,1019.94
2016-09-24T00:15:12.171Z,1019.94
2016-09-24T00:15:52.716Z,1019.86
2016-09-24T00:16:33.258Z,1019.85
2016-09-24T00:17:13.801Z,1019.84
2016-09-24T00:17:54.344Z,1019.88
2016-09-24T00:18:34.883Z,1019.82
2016-09-24T00:19:15.428Z,1019.83
2016-09-24T00:19:55.968Z,1019.87
2016-09-24T00:20:36.512Z,1019.87
2016-09-24T00:21:17.053Z,1019.85
2016-09-24T00:21:57.596Z,1019.86
2016-09-24T00:22:38.147Z,1019.86
2016-09-24T00:23:18.678Z,1019.89
2016-09-24T00:23:59.223Z,1019.85
2016-09-24T00:24:39.761Z,1019.85
2016-09-24T00:25:20.302Z,1019.9
2016-09-24T00:26:00.845Z,1019.9
2016-09-24T00:26:41.399Z,1019.88
2016-09-24T00:27:21.940Z,1019.89
2016-09-24T00:28:02.474Z,1019.89
2016-09-24T00:28:43.016Z,1019.93
2016-09-24T00:29:23.558Z,1019.9
2016-09-24T00:30:04.093Z,1019.89
2016-09-24T00:30:44.630Z,1019.92
2016-09-24T00:31:25.176Z,1019.94
2016-09-24T00:32:05.709Z,1019.92
2016-09-24T00:32:46.254Z,1019.93
2016-09-24T00:33:26.795Z,1019.9
2016-09-24T00:34:07.348Z,1019.94
2016-09-24T00:34:47.893Z,1019.9
2016-09-24T00:35:28.446Z,1019.87
2016-09-24T00:36:08.993Z,1019.87
2016-09-24T00:36:49.534Z,1019.87
2016-09-24T00:37:30.085Z,1019.88
2016-09-24T00:38:10.626Z,1019.87
2016-09-24T00:38:51.168Z,1019.86
2016-09-24T00:39:31.714Z,1019.88
2016-09-24T00:40:12.253Z,1019.87
2016-09-24T00:40:52.791Z,1019.86
2016-09-24T00:41:33.334Z,1019.87
2016-09-24T00:42:13.873Z,1019.87
2016-09-24T00:42:54.406Z,1019.87
2016-09-24T00:43:34.952Z,1019.9
2016-09-24T00:44:15.497Z,1019.88
2016-09-24T00:44:56.041Z,1019.9
2016-09-24T00:45:36.584Z,1019.94
2016-09-24T00:46:17.132Z,1019.93
2016-09-24T00:46:57.685Z,1019.94
2016-09-24T00:47:38.213Z,1019.95
2016-09-24T00:48:18.749Z,1019.93
2016-09-24T00:48:59.289Z,1019.95
2016-09-24T00:49:39.829Z,1019.91
2016-09-24T00:50:20.381Z,1019.93
2016-09-24T00:51:00.913Z,1019.9
2016-09-24T00:51:41.460Z,1019.89
2016-09-24T00:52:22.005Z,1019.88
2016-09-24T00:53:02.554Z,1019.9
2016-09-24T00:53:43.094Z,1019.89
2016-09-24T00:54:23.632Z,1019.87
2016-09-24T00:55:04.171Z,1019.85
2016-09-24T00:55:44.709Z,1019.88
2016-09-24T00:56:25.251Z,1019.86
2016-09-24T00:57:05.790Z,1019.88
2016-09-24T00:57:46.328Z,1019.89
2016-09-24T00:58:26.871Z,1019.86
2016-09-24T00:59:07.420Z,1019.85
2016-09-24T00:59:47.963Z,1019.9
2016-09-24T01:00:28.509Z,1019.88
2016-09-24T01:01:09.055Z,1019.84
2016-09-24T01:01:49.598Z,1019.88
2016-09-24T01:02:30.140Z,1019.84
2016-09-24T01:03:10.665Z,1019.86
2016-09-24T01:03:51.209Z,1019.84
2016-09-24T01:04:31.745Z,1019.84
2016-09-24T01:05:12.289Z,1019.86
2016-09-24T01:05:52.833Z,1019.86
2016-09-24T01:06:33.379Z,1019.84
2016-09-24T01:07:13.921Z,1019.85
2016-09-24T01:07:54.459Z,1019.83
2016-09-24T01:08:35.011Z,1019.84
2016-09-24T01:09:15.544Z,1019.83
2016-09-24T01:09:56.087Z,1019.84
2016-09-24T01:10:36.624Z,1019.81
2016-09-24T01:11:17.168Z,1019.83
2016-09-24T01:11:57.703Z,1019.8
2016-09-24T01:12:38.252Z,1019.82
2016-09-24T01:13:18.786Z,1019.81
2016-09-24T01:13:59.332Z,1019.82
2016-09-24T01:14:39.877Z,1019.77
2016-09-24T01:15:20.422Z,1019.79
2016-09-24T01:16:00.966Z,1019.81
2016-09-24T01:16:41.506Z,1019.77
2016-09-24T01:17:22.035Z,1019.79
2016-09-24T01:18:02.584Z,1019.8
2016-09-24T01:18:43.124Z,1019.78
2016-09-24T01:19:23.658Z,1019.76
2016-09-24T01:20:04.199Z,1019.75
2016-09-24T01:20:44.748Z,1019.77
2016-09-24T01:21:25.301Z,1019.79
2016-09-24T01:22:05.844Z,1019.76
2016-09-24T01:22:46.385Z,1019.77
2016-09-24T01:23:26.922Z,1019.75
2016-09-24T01:24:07.465Z,1019.74
2016-09-24T01:24:47.991Z,1019.76
2016-09-24T01:25:28.519Z,1019.76
2016-09-24T01:26:09.066Z,1019.75
2016-09-24T01:26:49.603Z,1019.75
2016-09-24T01:27:30.149Z,1019.72
2016-09-24T01:28:10.699Z,1019.74
2016-09-24T01:28:51.241Z,1019.76
2016-09-24T01:29:31.790Z,1019.76
2016-09-24T01:30:12.338Z,1019.73
2016-09-24T01:30:52.884Z,1019.71
2016-09-24T01:31:33.429Z,1019.72
2016-09-24T01:32:13.963Z,1019.71
2016-09-24T01:32:54.500Z,1019.72
2016-09-24T01:33:35.045Z,1019.7
2016-09-24T01:34:15.586Z,1019.75
2016-09-24T01:34:56.118Z,1019.72
2016-09-24T01:35:36.660Z,1019.71
2016-09-24T01:36:17.180Z,1019.75
2016-09-24T01:36:57.733Z,1019.69
2016-09-24T01:37:38.275Z,1019.73
2016-09-24T01:38:18.816Z,1019.69
2016-09-24T01:38:59.351Z,1019.75
2016-09-24T01:39:39.895Z,1019.75
2016-09-24T01:40:20.432Z,1019.73
2016-09-24T01:41:00.975Z,1019.72
2016-09-24T01:41:41.518Z,1019.76
2016-09-24T01:42:22.067Z,1019.75
2016-09-24T01:43:02.613Z,1019.74
2016-09-24T01:43:43.163Z,1019.74
2016-09-24T01:44:23.705Z,1019.74
2016-09-24T01:45:04.249Z,1019.75
2016-09-24T01:45:44.794Z,1019.74
2016-09-24T01:46:25.353Z,1019.79
2016-09-24T01:47:05.897Z,1019.76
2016-09-24T01:47:46.441Z,1019.75
2016-09-24T01:48:26.987Z,1019.77
2016-09-24T01:49:07.513Z,1019.77
2016-09-24T01:49:48.056Z,1019.8
2016-09-24T01:50:28.601Z,1019.78
2016-09-24T01:51:09.141Z,1019.79
2016-09-24T01:51:49.693Z,1019.77
2016-09-24T01:52:30.231Z,1019.81
2016-09-24T01:53:10.778Z,1019.76
2016-09-24T01:53:51.326Z,1019.74
2016-09-24T01:54:31.875Z,1019.74
2016-09-24T01:55:12.422Z,1019.76
2016-09-24T01:55:52.969Z,1019.78
2016-09-24T01:56:33.509Z,1019.78
2016-09-24T01:57:14.051Z,1019.77
2016-09-24T01:57:54.598Z,1019.76
2016-09-24T01:58:35.135Z,1019.77
2016-09-24T01:59:15.671Z,1019.8
2016-09-24T01:59:56.214Z,1019.83
2016-09-24T02:00:36.760Z,1019.78
2016-09-24T02:01:17.305Z,1019.79
2016-09-24T02:01:57.848Z,1019.78
2016-09-24T02:02:38.390Z,1019.8
2016-09-24T02:03:18.929Z,1019.77
2016-09-24T02:03:59.491Z,1019.83
2016-09-24T02:04:40.040Z,1019.78
2016-09-24T02:05:20.581Z,1019.79
2016-09-24T02:06:01.128Z,1019.79
2016-09-24T02:06:41.673Z,1019.81
2016-09-24T02:07:22.217Z,1019.8
2016-09-24T02:08:02.761Z,1019.81
2016-09-24T02:08:43.301Z,1019.82
2016-09-24T02:09:23.831Z,1019.82
2016-09-24T02:10:04.372Z,1019.8
2016-09-24T02:10:44.913Z,1019.8
2016-09-24T02:11:25.447Z,1019.81
2016-09-24T02:12:05.989Z,1019.83
2016-09-24T02:12:46.530Z,1019.82
2016-09-24T02:13:27.072Z,1019.8
2016-09-24T02:14:07.615Z,1019.81
2016-09-24T02:14:48.158Z,1019.81
2016-09-24T02:15:28.689Z,1019.82
2016-09-24T02:16:09.223Z,1019.82
2016-09-24T02:16:49.769Z,1019.79
2016-09-24T02:17:30.308Z,1019.79
2016-09-24T02:18:10.853Z,1019.78
2016-09-24T02:18:51.396Z,1019.78
2016-09-24T02:19:31.943Z,1019.72
2016-09-24T02:20:12.482Z,1019.73
2016-09-24T02:20:53.029Z,1019.74
2016-09-24T02:21:33.563Z,1019.71
2016-09-24T02:22:14.099Z,1019.68
2016-09-24T02:22:54.644Z,1019.73
2016-09-24T02:23:35.176Z,1019.66
2016-09-24T02:24:15.727Z,1019.68
2016-09-24T02:24:56.279Z,1019.66
2016-09-24T02:25:36.827Z,1019.66
2016-09-24T02:26:17.365Z,1019.67
2016-09-24T02:26:57.903Z,1019.65
2016-09-24T02:27:38.450Z,1019.65
2016-09-24T02:28:18.988Z,1019.64
2016-09-24T02:28:59.539Z,1019.68
2016-09-24T02:29:40.081Z,1019.66
2016-09-24T02:30:20.623Z,1019.72
2016-09-24T02:31:01.159Z,1019.69
2016-09-24T02:31:41.702Z,1019.71
2016-09-24T02:32:22.242Z,1019.71
2016-09-24T02:33:02.785Z,1019.66
2016-09-24T02:33:43.326Z,1019.69
2016-09-24T02:34:23.868Z,1019.69
2016-09-24T02:35:04.415Z,1019.67
2016-09-24T02:35:44.960Z,1019.67
2016-09-24T02:36:25.508Z,1019.69
2016-09-24T02:37:06.048Z,1019.61
2016-09-24T02:37:46.595Z,1019.63
2016-09-24T02:38:27.130Z,1019.67
2016-09-24T02:39:07.665Z,1019.67
2016-09-24T02:39:48.205Z,1019.66
2016-09-24T02:40:28.744Z,1019.63
2016-09-24T02:41:09.284Z,1019.58
2016-09-24T02:41:49.827Z,1019.6
2016-09-24T02:42:30.375Z,1019.6
2016-09-24T02:43:10.917Z,1019.6
2016-09-24T02:43:51.456Z,1019.57
2016-09-24T02:44:31.989Z,1019.54
2016-09-24T02:45:12.533Z,1019.61
2016-09-24T02:45:53.070Z,1019.56
2016-09-24T02:46:33.612Z,1019.56
2016-09-24T02:47:14.149Z,1019.57
2016-09-24T02:47:54.698Z,1019.6
2016-09-24T02:48:35.248Z,1019.58
2016-09-24T02:49:15.787Z,1019.57
2016-09-24T02:49:56.332Z,1019.59
2016-09-24T02:50:36.879Z,1019.54
2016-09-24T02:51:17.423Z,1019.55
2016-09-24T02:51:57.958Z,1019.54
2016-09-24T02:52:38.500Z,1019.57
2016-09-24T02:53:19.043Z,1019.54
2016-09-24T02:53:59.579Z,1019.59
2016-09-24T02:54:40.126Z,1019.56
2016-09-24T02:55:20.657Z,1019.58
2016-09-24T02:56:01.193Z,1019.57
2016-09-24T02:56:41.740Z,1019.55
2016-09-24T02:57:22.281Z,1019.57
2016-09-24T02:58:02.826Z,1019.58
2016-09-24T02:58:43.368Z,1019.54
2016-09-24T02:59:23.915Z,1019.54
2016-09-24T03:00:04.489Z,1019.55
2016-09-24T03:00:45.039Z,1019.55
2016-09-24T03:01:25.585Z,1019.5
2016-09-24T03:02:06.126Z,1019.5
2016-09-24T03:02:46.674Z,1019.54
2016-09-24T03:03:27.220Z,1019.5
2016-09-24T03:04:07.762Z,1019.55
2016-09-24T03:04:48.292Z,1019.49
2016-09-24T03:05:28.832Z,1019.47
2016-09-24T03:06:09.366Z,1019.52
2016-09-24T03:06:49.916Z,1019.44
2016-09-24T03:07:30.461Z,1019.47
2016-09-24T03:08:11.000Z,1019.5
2016-09-24T03:08:51.546Z,1019.5
2016-09-24T03:09:32.095Z,1019.49
2016-09-24T03:10:12.641Z,1019.47
2016-09-24T03:10:53.184Z,1019.54
2016-09-24T03:11:33.723Z,1019.5
2016-09-24T03:12:14.249Z,1019.49
2016-09-24T03:12:54.778Z,1019.53
2016-09-24T03:13:35.327Z,1019.5
2016-09-24T03:14:15.862Z,1019.52
2016-09-24T03:14:56.411Z,1019.53
2016-09-24T03:15:36.957Z,1019.5
2016-09-24T03:16:17.511Z,1019.56
2016-09-24T03:16:58.057Z,1019.54
2016-09-24T03:17:38.602Z,1019.55
2016-09-24T03:18:19.137Z,1019.51
2016-09-24T03:18:59.681Z,1019.5
2016-09-24T03:19:40.220Z,1019.51
2016-09-24T03:20:20.753Z,1019.52
2016-09-24T03:21:01.294Z,1019.53
2016-09-24T03:21:41.834Z,1019.49
2016-09-24T03:22:22.386Z,1019.54
2016-09-24T03:23:02.920Z,1019.57
2016-09-24T03:23:43.468Z,1019.54
2016-09-24T03:24:24.008Z,1019.6
2016-09-24T03:25:04.561Z,1019.55
2016-09-24T03:25:45.093Z,1019.55
2016-09-24T03:26:25.636Z,1019.57
2016-09-24T03:27:06.164Z,1019.56
2016-09-24T03:27:46.708Z,1019.57
2016-09-24T03:28:27.265Z,1019.57
2016-09-24T03:29:07.811Z,1019.59
2016-09-24T03:29:48.362Z,1019.53
2016-09-24T03:30:28.894Z,1019.52
2016-09-24T03:31:09.443Z,1019.52
2016-09-24T03:31:49.987Z,1019.53
2016-09-24T03:32:30.526Z,1019.53
2016-09-24T03:33:11.074Z,1019.5
2016-09-24T03:33:51.619Z,1019.52
2016-09-24T03:34:32.177Z,1019.54
2016-09-24T03:35:12.717Z,1019.51
2016-09-24T03:35:53.264Z,1019.52
2016-09-24T03:36:33.805Z,1019.5
2016-09-24T03:37:14.353Z,1019.52
2016-09-24T03:37:54.898Z,1019.52
2016-09-24T03:38:35.444Z,1019.53
2016-09-24T03:39:15.971Z,1019.55
2016-09-24T03:39:56.519Z,1019.55
2016-09-24T03:40:37.057Z,1019.54
2016-09-24T03:41:17.602Z,1019.55
2016-09-24T03:41:58.140Z,1019.53
2016-09-24T03:42:38.695Z,1019.55
2016-09-24T03:43:19.236Z,1019.57
2016-09-24T03:43:59.778Z,1019.57
2016-09-24T03:44:40.344Z,1019.6
2016-09-24T03:45:20.889Z,1019.57
2016-09-24T03:46:01.430Z,1019.56
2016-09-24T03:46:41.979Z,1019.58
2016-09-24T03:47:22.522Z,1019.59
2016-09-24T03:48:03.066Z,1019.55
2016-09-24T03:48:43.610Z,1019.59
2016-09-24T03:49:24.147Z,1019.58
2016-09-24T03:50:04.685Z,1019.56
2016-09-24T03:50:45.230Z,1019.57
2016-09-24T03:51:25.767Z,1019.57
2016-09-24T03:52:06.305Z,1019.54
2016-09-24T03:52:46.837Z,1019.54
2016-09-24T03:53:27.377Z,1019.54
2016-09-24T03:54:07.930Z,1019.56
2016-09-24T03:54:48.479Z,1019.54
2016-09-24T03:55:29.017Z,1019.53
2016-09-24T03:56:09.557Z,1019.54
2016-09-24T03:56:50.095Z,1019.58
2016-09-24T03:57:30.635Z,1019.53
2016-09-24T03:58:11.178Z,1019.56
2016-09-24T03:58:51.714Z,1019.56
2016-09-24T03:59:32.253Z,1019.56
2016-09-24T04:00:12.800Z,1019.55
2016-09-24T04:00:53.345Z,1019.57
2016-09-24T04:01:33.894Z,1019.57
2016-09-24T04:02:14.432Z,1019.56
2016-09-24T04:02:54.964Z,1019.56
2016-09-24T04:03:35.499Z,1019.59
2016-09-24T04:04:16.037Z,1019.55
2016-09-24T04:04:56.587Z,1019.57
2016-09-24T04:05:37.114Z,1019.54
2016-09-24T04:06:17.661Z,1019.58
2016-09-24T04:06:58.211Z,1019.58
2016-09-24T04:07:38.746Z,1019.57
2016-09-24T04:08:19.295Z,1019.55
2016-09-24T04:08:59.851Z,1019.55
2016-09-24T04:09:40.397Z,1019.56
2016-09-24T04:10:20.941Z,1019.55
2016-09-24T04:11:01.470Z,1019.54
2016-09-24T04:11:42.012Z,1019.56
2016-09-24T04:12:22.554Z,1019.6
2016-09-24T04:13:03.100Z,1019.57
2016-09-24T04:13:43.640Z,1019.57
2016-09-24T04:14:24.188Z,1019.59
2016-09-24T04:15:04.723Z,1019.62
2016-09-24T04:15:45.269Z,1019.55
2016-09-24T04:16:25.817Z,1019.56
2016-09-24T04:17:06.368Z,1019.6
2016-09-24T04:17:46.911Z,1019.53
2016-09-24T04:18:27.457Z,1019.55
2016-09-24T04:19:08.000Z,1019.54
2016-09-24T04:19:48.528Z,1019.55
2016-09-24T04:20:29.231Z,1019.58
2016-09-24T04:21:09.693Z,1019.55
2016-09-24T04:21:50.236Z,1019.55
2016-09-24T04:22:30.780Z,1019.58
2016-09-24T04:23:11.328Z,1019.58
2016-09-24T04:23:51.880Z,1019.54
2016-09-24T04:24:32.435Z,1019.55
2016-09-24T04:25:12.985Z,1019.53
2016-09-24T04:25:53.525Z,1019.52
2016-09-24T04:26:34.072Z,1019.54
2016-09-24T04:27:14.619Z,1019.5
2016-09-24T04:27:55.160Z,1019.5
2016-09-24T04:28:35.700Z,1019.52
2016-09-24T04:29:16.245Z,1019.55
2016-09-24T04:29:56.784Z,1019.52
2016-09-24T04:30:37.323Z,1019.54
2016-09-24T04:31:17.870Z,1019.5
2016-09-24T04:31:58.404Z,1019.5
2016-09-24T04:32:38.954Z,1019.53
2016-09-24T04:33:19.497Z,1019.5
2016-09-24T04:34:00.040Z,1019.5
2016-09-24T04:34:40.586Z,1019.5
2016-09-24T04:35:21.132Z,1019.56
2016-09-24T04:36:01.679Z,1019.47
2016-09-24T04:36:42.227Z,1019.49
2016-09-24T04:37:22.771Z,1019.51
2016-09-24T04:38:03.314Z,1019.5
2016-09-24T04:38:43.858Z,1019.5
2016-09-24T04:39:24.391Z,1019.5
2016-09-24T04:40:04.927Z,1019.5
2016-09-24T04:40:45.464Z,1019.5
2016-09-24T04:41:26.012Z,1019.51
2016-09-24T04:42:06.554Z,1019.51
2016-09-24T04:42:47.095Z,1019.53
2016-09-24T04:43:27.644Z,1019.53
2016-09-24T04:44:08.185Z,1019.5
2016-09-24T04:44:48.728Z,1019.54
2016-09-24T04:45:29.275Z,1019.55
2016-09-24T04:46:09.818Z,1019.53
2016-09-24T04:46:50.361Z,1019.51
2016-09-24T04:47:30.902Z,1019.53
2016-09-24T04:48:11.439Z,1019.52
2016-09-24T04:48:51.980Z,1019.55
2016-09-24T04:49:32.519Z,1019.5
2016-09-24T04:50:13.064Z,1019.49
2016-09-24T04:50:53.609Z,1019.5
2016-09-24T04:51:34.158Z,1019.49
2016-09-24T04:52:14.710Z,1019.47
2016-09-24T04:52:55.258Z,1019.48
2016-09-24T04:53:35.803Z,1019.53
2016-09-24T04:54:16.348Z,1019.5
2016-09-24T04:54:56.894Z,1019.51
2016-09-24T04:55:37.433Z,1019.51
2016-09-24T04:56:17.992Z,1019.52
2016-09-24T04:56:58.537Z,1019.54
2016-09-24T04:57:39.084Z,1019.54
2016-09-24T04:58:19.627Z,1019.56
2016-09-24T04:59:00.166Z,1019.55
2016-09-24T04:59:40.703Z,1019.56
2016-09-24T05:00:21.248Z,1019.58
2016-09-24T05:01:01.790Z,1019.56
2016-09-24T05:01:42.333Z,1019.56
2016-09-24T05:02:22.876Z,1019.59
2016-09-24T05:03:03.419Z,1019.56
2016-09-24T05:03:43.964Z,1019.55
2016-09-24T05:04:24.508Z,1019.52
2016-09-24T05:05:05.054Z,1019.52
2016-09-24T05:05:45.600Z,1019.53
2016-09-24T05:06:26.147Z,1019.57
2016-09-24T05:07:06.693Z,1019.54
2016-09-24T05:07:47.236Z,1019.55
2016-09-24T05:08:27.767Z,1019.52
2016-09-24T05:09:08.325Z,1019.52
2016-09-24T05:09:48.850Z,1019.54
2016-09-24T05:10:29.396Z,1019.56
2016-09-24T05:11:09.946Z,1019.56
2016-09-24T05:11:50.485Z,1019.56
2016-09-24T05:12:31.027Z,1019.55
2016-09-24T05:13:11.564Z,1019.52
2016-09-24T05:13:52.105Z,1019.52
2016-09-24T05:14:32.651Z,1019.55
2016-09-24T05:15:13.194Z,1019.53
2016-09-24T05:15:53.790Z,1019.55
2016-09-24T05:16:34.497Z,1019.53
2016-09-24T05:17:15.111Z,1019.5
2016-09-24T05:17:55.654Z,1019.55
2016-09-24T05:18:36.190Z,1019.53
2016-09-24T05:19:16.734Z,1019.51
2016-09-24T05:19:57.279Z,1019.5
2016-09-24T05:20:37.816Z,1019.57
2016-09-24T05:21:18.366Z,1019.52
2016-09-24T05:21:58.914Z,1019.55
2016-09-24T05:22:39.457Z,1019.53
2016-09-24T05:23:19.995Z,1019.46
2016-09-24T05:24:00.533Z,1019.49
2016-09-24T05:24:41.079Z,1019.48
2016-09-24T05:25:21.697Z,1019.48
2016-09-24T05:26:02.252Z,1019.5
2016-09-24T05:26:42.798Z,1019.49
2016-09-24T05:27:23.337Z,1019.45
2016-09-24T05:28:03.887Z,1019.5
2016-09-24T05:28:44.438Z,1019.52
2016-09-24T05:29:24.985Z,1019.45
2016-09-24T05:30:05.524Z,1019.51
2016-09-24T05:30:46.097Z,1019.47
2016-09-24T05:31:26.641Z,1019.45
2016-09-24T05:32:07.188Z,1019.47
2016-09-24T05:32:47.731Z,1019.53
2016-09-24T05:33:28.277Z,1019.51
2016-09-24T05:34:08.857Z,1019.48
2016-09-24T05:34:49.385Z,1019.47
2016-09-24T05:35:29.961Z,1019.49
2016-09-24T05:36:10.652Z,1019.56
2016-09-24T05:36:51.192Z,1019.57
2016-09-24T05:37:31.735Z,1019.51
2016-09-24T05:38:12.281Z,1019.54
2016-09-24T05:38:52.819Z,1019.52
2016-09-24T05:39:33.464Z,1019.51
2016-09-24T05:40:14.009Z,1019.5
2016-09-24T05:40:54.571Z,1019.54
2016-09-24T05:41:35.115Z,1019.52
2016-09-24T05:42:15.658Z,1019.53
2016-09-24T05:42:56.207Z,1019.55
2016-09-24T05:43:36.749Z,1019.57
2016-09-24T05:44:17.287Z,1019.54
2016-09-24T05:44:57.835Z,1019.56
2016-09-24T05:45:38.412Z,1019.58
2016-09-24T05:46:19.007Z,1019.56
2016-09-24T05:46:59.545Z,1019.59
2016-09-24T05:47:40.098Z,1019.59
2016-09-24T05:48:20.638Z,1019.55
2016-09-24T05:49:01.184Z,1019.56
2016-09-24T05:49:41.764Z,1019.57
2016-09-24T05:50:22.299Z,1019.57
2016-09-24T05:51:02.840Z,1019.61
2016-09-24T05:51:43.404Z,1019.59
2016-09-24T05:52:23.935Z,1019.59
2016-09-24T05:53:04.482Z,1019.58
2016-09-24T05:53:45.035Z,1019.6
2016-09-24T05:54:25.578Z,1019.59
2016-09-24T05:55:06.121Z,1019.6
2016-09-24T05:55:46.663Z,1019.58
2016-09-24T05:56:27.212Z,1019.63
2016-09-24T05:57:07.767Z,1019.58
2016-09-24T05:57:48.313Z,1019.57
2016-09-24T05:58:28.859Z,1019.64
2016-09-24T05:59:09.394Z,1019.65
2016-09-24T06:01:38.871Z,1019.65
2016-09-24T06:02:19.411Z,1019.64
2016-09-24T06:02:59.952Z,1019.61
2016-09-24T06:03:40.495Z,1019.65
2016-09-24T06:04:21.032Z,1019.61
2016-09-24T06:05:01.576Z,1019.61
2016-09-24T06:05:42.206Z,1019.62
2016-09-24T06:06:22.812Z,1019.62
2016-09-24T06:07:03.434Z,1019.6
2016-09-24T06:07:43.934Z,1019.62
2016-09-24T06:08:24.454Z,1019.64
2016-09-24T06:09:04.998Z,1019.62
2016-09-24T06:09:45.503Z,1019.65
2016-09-24T06:10:26.087Z,1019.62
2016-09-24T06:11:06.611Z,1019.64
2016-09-24T06:11:47.134Z,1019.64
2016-09-24T06:12:27.643Z,1019.65
2016-09-24T06:13:08.196Z,1019.62
2016-09-24T06:13:48.742Z,1019.62
2016-09-24T06:14:29.286Z,1019.63
2016-09-24T06:15:09.809Z,1019.63
2016-09-24T06:15:50.328Z,1019.64
2016-09-24T06:16:30.832Z,1019.65
2016-09-24T06:17:11.328Z,1019.63
2016-09-24T06:17:51.867Z,1019.63
2016-09-24T06:18:32.386Z,1019.67
2016-09-24T06:19:12.925Z,1019.66
2016-09-24T06:19:53.464Z,1019.69
2016-09-24T06:20:34.136Z,1019.66
2016-09-24T06:21:14.682Z,1019.66
2016-09-24T06:21:55.227Z,1019.65
2016-09-24T06:22:35.758Z,1019.63
2016-09-24T06:23:16.296Z,1019.6
2016-09-24T06:23:56.841Z,1019.62
2016-09-24T06:24:37.383Z,1019.61
2016-09-24T06:25:17.920Z,1019.6
2016-09-24T06:25:58.476Z,1019.61
2016-09-24T06:26:39.026Z,1019.63
2016-09-24T06:27:19.563Z,1019.63
2016-09-24T06:28:00.126Z,1019.63
2016-09-24T06:28:40.644Z,1019.63
2016-09-24T06:29:21.186Z,1019.64
2016-09-24T06:30:01.715Z,1019.63
2016-09-24T06:30:42.272Z,1019.61
2016-09-24T06:31:22.794Z,1019.61
2016-09-24T06:32:03.332Z,1019.62
2016-09-24T06:32:43.875Z,1019.63
2016-09-24T06:33:24.419Z,1019.62
2016-09-24T06:34:04.971Z,1019.61
2016-09-24T06:34:45.514Z,1019.64
2016-09-24T06:35:26.053Z,1019.62
2016-09-24T06:36:06.599Z,1019.6
2016-09-24T06:36:47.144Z,1019.57
2016-09-24T06:37:27.696Z,1019.59
2016-09-24T06:38:08.239Z,1019.58
2016-09-24T06:38:48.752Z,1019.61
2016-09-24T06:39:29.297Z,1019.59
2016-09-24T06:40:09.841Z,1019.63
2016-09-24T06:40:50.381Z,1019.57
2016-09-24T06:41:30.934Z,1019.6
2016-09-24T06:42:11.483Z,1019.63
2016-09-24T06:42:52.020Z,1019.63
2016-09-24T06:43:32.559Z,1019.66
2016-09-24T06:44:13.102Z,1019.64
2016-09-24T06:44:53.643Z,1019.63
2016-09-24T06:45:34.179Z,1019.63
2016-09-24T06:46:14.724Z,1019.64
2016-09-24T06:46:55.266Z,1019.64
2016-09-24T06:47:35.807Z,1019.59
2016-09-24T06:48:16.360Z,1019.62
2016-09-24T06:48:56.912Z,1019.56
2016-09-24T06:49:37.444Z,1019.6
2016-09-24T06:50:17.990Z,1019.61
2016-09-24T06:50:58.536Z,1019.62
2016-09-24T06:51:39.072Z,1019.59
2016-09-24T06:52:19.635Z,1019.58
2016-09-24T06:53:00.180Z,1019.62
2016-09-24T06:53:40.720Z,1019.63
2016-09-24T06:54:21.248Z,1019.61
2016-09-24T06:55:01.786Z,1019.63
2016-09-24T06:55:42.328Z,1019.62
2016-09-24T06:56:22.867Z,1019.66
2016-09-24T06:57:03.412Z,1019.65
2016-09-24T06:57:43.971Z,1019.69
2016-09-24T06:58:24.515Z,1019.66
2016-09-24T06:59:05.053Z,1019.71
2016-09-24T06:59:45.644Z,1019.66
2016-09-24T07:00:26.182Z,1019.67
2016-09-24T07:01:06.720Z,1019.67
2016-09-24T07:01:47.287Z,1019.62
2016-09-24T07:02:27.807Z,1019.67
2016-09-24T07:03:08.353Z,1019.64
2016-09-24T07:03:48.895Z,1019.65
2016-09-24T07:04:29.441Z,1019.63
2016-09-24T07:05:10.003Z,1019.68
2016-09-24T07:05:50.512Z,1019.69
2016-09-24T07:06:31.045Z,1019.66
2016-09-24T07:07:11.589Z,1019.69
2016-09-24T07:07:52.125Z,1019.72
2016-09-24T07:08:32.675Z,1019.71
2016-09-24T07:09:13.462Z,1019.71
2016-09-24T07:09:55.045Z,1019.7
2016-09-24T07:10:36.501Z,1019.7
2016-09-24T07:11:17.558Z,1019.65
2016-09-24T07:11:58.098Z,1019.69
2016-09-24T07:12:38.642Z,1019.67
2016-09-24T07:13:19.179Z,1019.66
2016-09-24T07:13:59.726Z,1019.7
2016-09-24T07:14:40.273Z,1019.66
2016-09-24T07:15:20.813Z,1019.69
2016-09-24T07:16:01.357Z,1019.7
2016-09-24T07:16:41.906Z,1019.67
2016-09-24T07:17:22.450Z,1019.67
2016-09-24T07:18:02.977Z,1019.67
2016-09-24T07:18:43.514Z,1019.62
2016-09-24T07:19:24.051Z,1019.64
2016-09-24T07:20:04.592Z,1019.66
2016-09-24T07:20:45.135Z,1019.67
2016-09-24T07:21:25.688Z,1019.67
2016-09-24T07:22:06.233Z,1019.64
2016-09-24T07:22:46.772Z,1019.63
2016-09-24T07:23:27.325Z,1019.64
2016-09-24T07:24:07.878Z,1019.67
2016-09-24T07:24:48.424Z,1019.66
2016-09-24T07:25:28.987Z,1019.68
2016-09-24T07:26:09.527Z,1019.71
2016-09-24T07:26:50.067Z,1019.71
2016-09-24T07:27:30.615Z,1019.72
2016-09-24T07:28:11.143Z,1019.7
2016-09-24T07:28:51.673Z,1019.69
2016-09-24T07:29:32.218Z,1019.71
2016-09-24T07:30:12.759Z,1019.68
2016-09-24T07:30:53.300Z,1019.7
2016-09-24T07:31:33.844Z,1019.69
2016-09-24T07:32:14.385Z,1019.69
2016-09-24T07:32:54.930Z,1019.71
2016-09-24T07:33:35.472Z,1019.69
2016-09-24T07:34:16.015Z,1019.65
2016-09-24T07:34:56.554Z,1019.71
2016-09-24T07:35:37.083Z,1019.73
2016-09-24T07:36:17.619Z,1019.68
2016-09-24T07:36:58.165Z,1019.72
2016-09-24T07:37:38.707Z,1019.69
2016-09-24T07:38:19.255Z,1019.72
2016-09-24T07:38:59.790Z,1019.69
2016-09-24T07:39:40.332Z,1019.67
2016-09-24T07:40:20.872Z,1019.7
2016-09-24T07:41:01.393Z,1019.66
2016-09-24T07:41:41.934Z,1019.65
2016-09-24T07:42:22.471Z,1019.66
2016-09-24T07:43:03.016Z,1019.64
2016-09-24T07:43:43.559Z,1019.65
2016-09-24T07:44:24.127Z,1019.66
2016-09-24T07:45:04.676Z,1019.67
2016-09-24T07:45:45.217Z,1019.69
2016-09-24T07:46:25.763Z,1019.72
2016-09-24T07:47:06.330Z,1019.69
2016-09-24T07:47:46.879Z,1019.7
2016-09-24T07:48:27.419Z,1019.68
2016-09-24T07:49:07.963Z,1019.68
2016-09-24T07:49:48.536Z,1019.67
2016-09-24T07:50:29.074Z,1019.68
2016-09-24T07:51:09.614Z,1019.71
2016-09-24T07:51:50.163Z,1019.69
2016-09-24T07:52:30.706Z,1019.71
2016-09-24T07:53:11.253Z,1019.7
2016-09-24T07:53:51.817Z,1019.69
2016-09-24T07:54:32.335Z,1019.67
2016-09-24T07:55:12.871Z,1019.69
2016-09-24T07:55:53.409Z,1019.69
2016-09-24T07:56:33.944Z,1019.68
2016-09-24T07:57:14.487Z,1019.69
2016-09-24T07:57:55.033Z,1019.7
2016-09-24T07:58:35.591Z,1019.69
2016-09-24T07:59:16.126Z,1019.7
2016-09-24T07:59:56.672Z,1019.68
2016-09-24T08:00:37.224Z,1019.69
2016-09-24T08:01:17.778Z,1019.69
2016-09-24T08:01:58.329Z,1019.71
2016-09-24T08:02:38.876Z,1019.73
2016-09-24T08:03:19.409Z,1019.75
2016-09-24T08:03:59.955Z,1019.71
2016-09-24T08:04:40.515Z,1019.72
2016-09-24T08:05:21.078Z,1019.74
2016-09-24T08:06:01.621Z,1019.72
2016-09-24T08:06:42.172Z,1019.73
2016-09-24T08:07:22.719Z,1019.7
2016-09-24T08:08:03.263Z,1019.72
2016-09-24T08:08:43.809Z,1019.73
2016-09-24T08:09:24.358Z,1019.68
2016-09-24T08:10:04.904Z,1019.68
2016-09-24T08:10:45.450Z,1019.7
2016-09-24T08:11:25.994Z,1019.7
2016-09-24T08:12:06.555Z,1019.72
2016-09-24T08:12:47.102Z,1019.72
2016-09-24T08:13:27.643Z,1019.71
2016-09-24T08:14:08.187Z,1019.69